Latest Weather Observations for Edithburgh

IDS60801

Issued at 3:51 pm CST Sunday 11 April 2021 (issued every 10 minutes, with the page automatically refreshed every 10 minutes)

About weather observations | Map of weather stations | Latest weather observations for SA | Other Formats
Station Details ID: 022046 Name: EDITHBURGH Lat: -35.11 Lon: 137.74 Height: 6.0 m
Data from the previous 72 hours. | See also: Recent months at Edithburgh
Date/Time
CST
Temp
°C
App
Temp
°C
Dew
Point
°C
Rel
Hum
%
Delta-T
°C
Wind Press
QNH
hPa
Press
MSL
hPa
Rain since
9am
mm
Dir  Spd
km/h
Gust
km/h
Spd
kts
Gust
kts
11/03:30pm 17.1 13.5 6.9 51 5.0 S 15 19 8 10 1024.4 1024.3 0.0
11/03:00pm 16.9 12.9 6.7 51 5.0 S 17 22 9 12 1024.5 1024.4 0.0
11/02:30pm 17.2 12.8 6.4 49 5.3 S 19 26 10 14 1024.6 1024.5 0.0
11/02:00pm 17.4 12.8 5.4 45 5.8 S 19 26 10 14 1024.2 1024.1 0.0
11/01:30pm 17.5 13.0 6.1 47 5.6 SSE 19 24 10 13 1024.3 1024.2 0.0
11/01:00pm 16.7 12.0 6.2 50 5.1 SSE 20 28 11 15 1024.5 1024.4 0.0
11/12:30pm 17.5 11.7 6.1 47 5.6 S 26 35 14 19 1024.6 1024.5 0.0
11/12:00pm 16.4 11.4 6.5 52 4.8 S 22 30 12 16 1024.7 1024.6 0.0
11/11:30am 16.4 12.4 8.9 61 3.8 S 20 30 11 16 1024.9 1024.8 0.0
11/11:00am 15.2 10.8 9.1 67 3.1 S 22 32 12 17 1024.9 1024.8 0.0
11/10:30am 16.7 11.3 6.5 51 5.0 SSW 24 30 13 16 1024.9 1024.8 0.0
11/10:00am 16.6 11.4 5.6 48 5.3 S 22 30 12 16 1024.9 1024.8 0.0
11/09:30am 16.5 11.5 3.6 42 5.9 S 19 28 10 15 1024.9 1024.8 0.0
11/09:00am 16.1 9.9 4.2 45 5.5 SSW 26 35 14 19 1024.7 1024.6 0.2
11/08:30am 15.5 8.9 6.0 53 4.6 S 30 39 16 21 1024.3 1024.2 0.2
11/08:00am 15.3 9.6 6.8 57 4.2 SSW 26 33 14 18 1023.9 1023.8 0.2
11/07:30am 15.2 9.3 6.0 54 4.4 SSW 26 33 14 18 1023.5 1023.4 0.2
11/07:00am 14.8 8.3 6.6 58 4.0 SSW 30 43 16 23 1023.2 1023.1 0.2
11/06:30am 15.1 9.0 4.8 50 4.8 SSW 26 37 14 20 1022.9 1022.8 0.2
11/06:00am 14.9 7.3 3.1 45 5.3 SSW 32 43 17 23 1022.7 1022.6 0.2
11/05:30am 15.1 8.2 6.4 56 4.2 S 32 43 17 23 1022.1 1022.0 0.2
11/05:00am 14.2 7.4 7.9 66 3.1 SSW 33 52 18 28 1022.0 1021.9 0.2
11/04:30am 15.0 8.2 6.8 58 4.0 SW 32 43 17 23 1021.7 1021.6 0.2
11/04:00am 15.3 9.8 5.8 53 4.5 SSW 24 32 13 17 1021.2 1021.1 0.2
11/03:30am 15.2 7.7 6.2 55 4.3 SSW 35 43 19 23 1021.2 1021.1 0.2
11/03:00am 15.4 9.4 6.9 57 4.2 SSW 28 37 15 20 1021.1 1021.0 0.2
11/02:30am 15.4 8.8 5.9 53 4.5 SSW 30 43 16 23 1021.0 1020.9 0.2
11/02:00am 15.6 8.9 5.5 51 4.8 SSW 30 41 16 22 1021.2 1021.1 0.2
11/01:30am 15.2 8.5 5.4 52 4.6 SSW 30 43 16 23 1021.2 1021.1 0.2
11/01:00am 15.3 8.4 6.6 56 4.2 SSW 32 41 17 22 1021.2 1021.1 0.2
11/12:30am 15.3 9.0 7.3 59 3.9 SSW 30 39 16 21 1021.2 1021.1 0.2
11/12:00am 15.4 10.0 6.4 55 4.4 SW 24 37 13 20 1021.1 1021.0 0.2
 
Date/Time
CST
Temp
°C
App
Temp
°C
Dew
Point
°C
Rel
Hum
%
Delta-T
°C
Wind Press
QNH
hPa
Press
MSL
hPa
Rain since
9am
mm
Dir  Spd
km/h
Gust
km/h
Spd
kts
Gust
kts
10/11:30pm 15.6 8.3 4.6 48 5.1 SSW 32 44 17 24 1021.0 1020.9 0.2
10/11:00pm 15.1 7.8 5.3 52 4.6 SSW 33 46 18 25 1021.2 1021.1 0.2
10/10:30pm 15.5 8.8 7.3 58 4.0 SSW 32 44 17 24 1021.1 1021.0 0.2
10/10:00pm 15.4 9.3 8.4 63 3.5 SW 30 44 16 24 1021.0 1020.9 0.2
10/09:30pm 14.6 8.3 9.0 69 2.8 SSW 32 41 17 22 1020.8 1020.7 0.2
10/09:00pm 15.8 9.7 6.8 55 4.4 SSW 28 37 15 20 1020.4 1020.3 0.2
10/08:30pm 15.8 9.7 6.8 55 4.4 SW 28 44 15 24 1020.1 1020.0 0.2
10/08:00pm 16.1 8.6 8.1 59 4.0 SSW 37 50 20 27 1019.9 1019.8 0.2
10/07:30pm 15.9 10.1 6.1 52 4.7 SW 26 41 14 22 1019.5 1019.5 0.2
10/07:00pm 16.3 9.3 6.7 53 4.7 SSW 33 44 18 24 1019.0 1019.0 0.2
10/06:30pm 16.5 11.3 7.4 55 4.5 SW 24 32 13 17 1018.6 1018.6 0.2
10/06:00pm 16.2 11.7 6.9 54 4.6 SW 20 30 11 16 1018.4 1018.4 0.2
10/05:30pm 16.4 10.1 7.3 55 4.5 SW 30 39 16 21 1018.2 1018.2 0.2
10/05:00pm 17.1 10.3 6.9 51 5.1 SSW 32 41 17 22 1017.8 1017.8 0.2
10/04:30pm 17.8 12.0 6.3 47 5.7 SSW 26 37 14 20 1017.6 1017.6 0.2
10/04:00pm 18.6 12.0 6.1 44 6.2 SSW 30 41 16 22 1017.6 1017.6 0.2
10/03:30pm 18.5 12.1 5.4 42 6.4 SSW 28 43 15 23 1017.3 1017.3 0.2
10/03:00pm 18.9 12.7 6.1 43 6.3 SW 28 39 15 21 1017.0 1017.0 0.2
10/02:30pm 18.8 12.9 7.6 48 5.7 SSW 28 37 15 20 1016.9 1016.9 0.2
10/02:00pm 19.4 13.5 5.8 41 6.7 SSW 26 33 14 18 1016.8 1016.8 0.2
10/01:30pm 18.9 12.2 3.9 37 7.1 SSW 28 39 15 21 1016.9 1016.9 0.2
10/01:00pm 18.8 12.8 6.9 46 6.0 SW 28 39 15 21 1016.9 1016.9 0.2
10/12:30pm 18.3 12.2 8.3 52 5.1 SW 30 39 16 21 1016.9 1016.9 0.2
10/12:00pm 19.1 12.9 7.8 48 5.8 SSW 30 39 16 21 1017.0 1017.0 0.2
10/11:30am 18.5 13.1 9.6 56 4.7 SW 28 39 15 21 1016.8 1016.8 0.2
10/11:00am 17.9 12.9 12.1 69 3.2 SSW 30 39 16 21 1016.8 1016.8 0.2
10/10:30am 16.5 11.2 11.4 72 2.7 SSW 30 41 16 22 1016.9 1016.9 0.0
10/10:00am 18.5 14.4 11.3 63 3.9 SW 24 32 13 17 1016.8 1016.8 0.0
10/09:30am 16.1 11.5 12.3 78 2.1 SW 28 46 15 25 1016.9 1016.9 0.0
10/09:29am 15.9 11.3 12.3 79 2.0 SW 28 46 15 25 1016.9 1016.9 0.0
10/09:00am 18.3 12.8 7.4 49 5.5 SW 26 37 14 20 1016.3 1016.3 0.2
10/08:30am 18.7 13.4 6.9 46 5.9 SW 24 32 13 17 1015.9 1015.9 0.2
10/08:00am 16.9 12.4 10.1 64 3.6 SW 24 37 13 20 1015.6 1015.6 0.2
10/07:30am 16.4 10.8 10.3 67 3.2 SW 30 41 16 22 1015.2 1015.2 0.2
10/07:00am 16.3 11.6 10.6 69 3.0 SW 26 39 14 21 1014.9 1014.9 0.2
10/06:30am 16.0 11.1 11.2 73 2.6 SW 28 41 15 22 1014.8 1014.8 0.2
10/06:00am 15.8 11.5 10.6 71 2.8 SW 24 33 13 18 1014.4 1014.4 0.2
10/05:30am 15.9 11.9 10.4 70 2.9 SW 22 32 12 17 1014.2 1014.2 0.2
10/05:00am 15.4 11.6 9.7 69 3.0 SW 20 30 11 16 1013.8 1013.8 0.2
10/04:30am 14.7 12.4 10.5 76 2.2 WSW 13 22 7 12 1013.8 1013.8 0.2
10/04:00am 14.9 12.3 10.7 76 2.2 WSW 15 19 8 10 1013.8 1013.8 0.2
10/03:30am 14.1 11.6 10.9 81 1.7 WSW 15 22 8 12 1013.9 1013.9 0.2
10/03:00am 15.8 10.9 9.9 68 3.1 SW 26 35 14 19 1014.0 1014.0 0.0
10/02:30am 15.4 12.6 10.0 70 2.8 WSW 15 26 8 14 1014.2 1014.2 0.0
10/02:00am 15.0 11.9 10.2 73 2.5 WSW 17 26 9 14 1014.3 1014.3 0.0
10/01:30am 14.8 12.5 10.6 76 2.2 WSW 13 19 7 10 1014.4 1014.4 0.0
10/01:00am 15.2 11.4 11.0 76 2.2 WSW 22 33 12 18 1014.3 1014.3 0.0
10/12:30am 16.4 13.3 7.3 55 4.5 WSW 13 24 7 13 1014.2 1014.2 0.0
10/12:00am 16.3 12.2 6.4 52 4.8 SW 17 28 9 15 1014.3 1014.3 0.0
 
Date/Time
CST
Temp
°C
App
Temp
°C
Dew
Point
°C
Rel
Hum
%
Delta-T
°C
Wind Press
QNH
hPa
Press
MSL
hPa
Rain since
9am
mm
Dir  Spd
km/h
Gust
km/h
Spd
kts
Gust
kts
09/11:30pm 16.5 11.2 6.9 53 4.7 SW 24 35 13 19 1014.5 1014.5 0.0
09/11:00pm 16.7 12.5 7.4 54 4.6 SW 19 24 10 13 1014.8 1014.8 0.0
09/10:30pm 16.7 12.7 6.5 51 5.0 SW 17 24 9 13 1014.9 1014.9 0.0
09/10:00pm 16.9 12.8 6.4 50 5.1 SW 17 24 9 13 1015.0 1015.0 0.0
09/09:30pm 17.0 12.7 6.8 51 5.0 SW 19 28 10 15 1014.9 1014.9 0.0
09/09:00pm 17.1 13.2 6.9 51 5.1 SW 17 24 9 13 1014.7 1014.7 0.0
09/08:30pm 17.0 13.9 8.9 59 4.2 SW 15 22 8 12 1014.7 1014.7 0.0
09/08:00pm 17.3 13.3 9.0 58 4.3 SSW 20 32 11 17 1014.3 1014.3 0.0
09/07:30pm 17.4 13.9 8.8 57 4.4 SW 17 24 9 13 1014.0 1014.0 0.0
09/07:00pm 17.5 14.3 8.4 55 4.7 SW 15 20 8 11 1013.9 1013.9 0.0
09/06:30pm 17.4 14.4 9.3 59 4.2 S 15 24 8 13 1013.5 1013.5 0.0
09/06:00pm 17.4 14.2 10.1 62 3.9 SSE 17 22 9 12 1013.1 1013.1 0.0
09/05:30pm 17.6 14.7 9.8 60 4.1 S 15 20 8 11 1013.0 1013.0 0.0
09/05:00pm 18.0 16.0 8.6 54 4.9 S 9 13 5 7 1013.1 1013.1 0.0
09/04:30pm 18.3 16.2 8.3 52 5.1 SSW 9 19 5 10 1013.1 1013.1 0.0
09/04:00pm 18.8 16.2 7.9 49 5.6 S 11 17 6 9 1013.0 1013.0 0.0
09/03:30pm 19.8 17.7 8.2 47 6.0 SSW 9 19 5 10 1013.0 1013.0 0.0
09/03:00pm 18.3 15.5 8.6 53 5.0 SW 13 20 7 11 1013.1 1013.1 0.0
09/02:30pm 18.6 16.1 8.3 51 5.3 S 11 17 6 9 1013.3 1013.3 0.0
09/02:00pm 19.6 16.9 7.4 45 6.2 S 11 17 6 9 1013.4 1013.4 0.0
09/01:30pm 18.5 16.0 6.7 46 5.9 S 9 17 5 9 1013.8 1013.8 0.0
09/01:00pm 19.4 16.6 6.8 44 6.3 S 11 19 6 10 1014.1 1014.1 0.0
09/12:30pm 19.1 16.2 6.6 44 6.2 S 11 19 6 10 1014.6 1014.6 0.0
09/12:00pm 19.1 14.6 5.9 42 6.5 S 19 26 10 14 1014.6 1014.6 0.0
09/11:30am 18.7 14.2 6.9 46 5.9 S 20 30 11 16 1014.3 1014.3 0.0
09/11:00am 18.9 14.7 7.4 47 5.8 S 19 26 10 14 1014.5 1014.5 0.0
09/10:30am 18.5 14.6 7.0 47 5.8 S 17 24 9 13 1014.6 1014.6 0.0
09/10:00am 18.3 14.0 8.0 51 5.3 SSE 20 28 11 15 1014.7 1014.7 0.0
09/09:30am 17.8 14.6 8.4 54 4.8 S 15 22 8 12 1015.1 1015.1 0.0
09/09:00am 16.8 13.3 8.8 59 4.1 S 17 24 9 13 1014.9 1014.9 0.4
09/08:30am 16.8 13.3 8.8 59 4.1 SSW 17 24 9 13 1014.6 1014.6 0.4
09/08:00am 16.8 12.7 8.5 58 4.2 S 20 28 11 15 1014.2 1014.2 0.4
09/07:30am 16.1 12.0 8.8 62 3.7 S 20 30 11 16 1013.8 1013.8 0.4
09/07:00am 15.8 11.4 9.0 64 3.5 S 22 30 12 16 1013.5 1013.5 0.4
09/06:30am 15.4 11.5 8.6 64 3.5 SSW 19 28 10 15 1012.9 1012.9 0.4
09/06:00am 15.8 12.0 9.7 67 3.2 SSW 20 28 11 15 1012.9 1012.9 0.4
09/05:30am 16.1 12.0 10.2 68 3.1 S 22 28 12 15 1012.3 1012.3 0.4
09/05:00am 16.3 12.3 10.6 69 3.0 S 22 30 12 16 1012.2 1012.2 0.4
09/04:30am 16.6 12.0 11.1 70 3.0 S 26 33 14 18 1011.7 1011.7 0.4
09/04:00am 17.0 12.4 11.1 68 3.2 S 26 33 14 18 1011.7 1011.7 0.4
09/03:30am 17.2 12.5 11.9 71 2.9 S 28 39 15 21 1011.8 1011.8 0.4
09/03:00am 17.1 12.7 12.8 76 2.4 S 28 39 15 21 1011.8 1011.8 0.4
09/02:30am 17.4 13.9 13.3 77 2.3 S 24 32 13 17 1012.0 1012.0 0.4
09/02:00am 17.5 12.9 13.6 78 2.2 S 30 39 16 21 1011.4 1011.4 0.4
09/01:30am 17.4 13.4 14.1 81 1.9 S 28 37 15 20 1011.3 1011.3 0.4
09/01:00am 17.2 14.4 14.3 83 1.7 S 22 30 12 16 1011.5 1011.5 0.4
09/12:30am 17.3 13.2 14.8 85 1.4 SSW 30 39 16 21 1011.7 1011.7 0.4
09/12:00am 17.2 13.4 15.7 91 0.9 SSW 30 41 16 22 1010.9 1010.9 0.4
 
Date/Time
CST
Temp
°C
App
Temp
°C
Dew
Point
°C
Rel
Hum
%
Delta-T
°C
Wind Press
QNH
hPa
Press
MSL
hPa
Rain since
9am
mm
Dir  Spd
km/h
Gust
km/h
Spd
kts
Gust
kts
08/11:30pm 18.1 15.3 16.3 89 1.1 S 26 33 14 18 1010.7 1010.7 0.4
08/11:00pm 17.7 15.5 15.9 89 1.1 SSW 22 28 12 15 1011.0 1011.0 0.2
08/10:30pm 18.0 16.4 16.5 91 0.9 SSW 20 28 11 15 1010.5 1010.5 0.2
08/10:00pm 18.6 16.2 17.3 92 0.8 SSW 26 33 14 18 1010.8 1010.8 0.0
08/09:30pm 19.4 16.6 17.2 87 1.3 SSW 28 37 15 20 1010.6 1010.6 0.0
08/09:00pm 19.8 17.6 16.8 83 1.8 S 24 33 13 18 1009.9 1009.9 0.0
08/08:30pm 20.2 19.0 17.4 84 1.7 S 20 28 11 15 1009.6 1009.6 0.0
08/08:00pm 20.3 19.8 17.7 85 1.6 S 17 20 9 11 1008.7 1008.7 0.0
08/07:30pm 20.6 20.5 17.0 80 2.2 SSE 13 22 7 12 1008.3 1008.3 0.0
08/07:00pm 20.9 21.0 16.5 76 2.7 SE 11 15 6 8 1007.6 1007.6 0.0
08/06:30pm 21.0 20.4 16.6 76 2.7 SSW 15 19 8 10 1008.0 1008.0 0.0
08/06:00pm 21.2 20.2 15.7 71 3.3 SW 15 20 8 11 1008.0 1008.0 0.0
08/05:30pm 21.6 20.1 14.3 63 4.3 SSW 15 19 8 10 1007.7 1007.7 0.0
08/05:00pm 23.4 21.9 11.8 48 6.5 SW 11 15 6 8 1007.3 1007.3 0.0
08/04:30pm 23.9 22.1 10.9 44 7.3 SW 11 15 6 8 1007.0 1007.0 0.0
08/04:00pm 24.5 21.2 10.8 42 7.6 SW 19 24 10 13 1007.0 1007.0 0.0

Other formats

Comma delimited format used in spreadsheet applications
http://www.bom.gov.au/fwo/IDS60801/IDS60801.94809.axf

JavaScript Object Notation format (JSON) in row-major order
http://www.bom.gov.au/fwo/IDS60801/IDS60801.94809.json

Data quality

Most of these data are generated automatically and are frequently updated. Quality checks on data are not normally performed. It is possible for incorrect values to appear. Refer to information at About Latest Weather Observations and please check the disclaimer before using these data.